sensor_id;sensor_type;location;lat;lon;timestamp;pressure;altitude;pressure_sealevel;temperature
70664;BMP280;58237;57.996;56.290;2022-07-05T09:04:31;99202.41;;;22.17
70664;BMP280;58237;57.996;56.290;2022-07-05T09:07:02;99342.63;;;23.17
70664;BMP280;58237;57.996;56.290;2022-07-05T09:09:28;99336.91;;;23.25
70664;BMP280;58237;57.996;56.290;2022-07-05T09:11:54;99342.19;;;23.36
70664;BMP280;58237;57.996;56.290;2022-07-05T09:14:22;99346.28;;;23.51
70664;BMP280;58237;57.996;56.290;2022-07-05T09:16:48;99337.16;;;23.63
70664;BMP280;58237;57.996;56.290;2022-07-05T09:19:13;99333.69;;;23.69
70664;BMP280;58237;57.996;56.290;2022-07-05T09:21:39;99334.06;;;23.75
70664;BMP280;58237;57.996;56.290;2022-07-05T09:24:07;99344.25;;;23.87
70664;BMP280;58237;57.996;56.290;2022-07-05T09:26:46;99332.06;;;23.93
70664;BMP280;58237;57.996;56.290;2022-07-05T09:29:13;99334.72;;;23.93
70664;BMP280;58237;57.996;56.290;2022-07-05T09:31:44;99329.38;;;23.96
70664;BMP280;58237;57.996;56.290;2022-07-05T09:36:57;99340.25;;;24.16
70664;BMP280;58237;57.996;56.290;2022-07-05T09:42:22;99336.88;;;24.12
70664;BMP280;58237;57.996;56.290;2022-07-05T09:47:18;99329.38;;;24.00
70664;BMP280;58237;57.996;56.290;2022-07-05T09:49:46;99319.50;;;23.97
70664;BMP280;58237;57.996;56.290;2022-07-05T09:52:38;99321.38;;;24.00
70664;BMP280;58237;57.996;56.290;2022-07-05T09:55:09;99323.25;;;24.03
70664;BMP280;58237;57.996;56.290;2022-07-05T09:57:37;99321.72;;;24.05
70664;BMP280;58237;57.996;56.290;2022-07-05T10:00:15;99331.59;;;24.05
70664;BMP280;58237;57.996;56.290;2022-07-05T10:02:48;99335.03;;;24.05
70664;BMP280;58237;57.996;56.290;2022-07-05T10:08:01;99327.22;;;24.32
70664;BMP280;58237;57.996;56.290;2022-07-05T10:10:31;99325.66;;;24.42
70664;BMP280;58237;57.996;56.290;2022-07-05T10:12:58;99322.88;;;24.52
70664;BMP280;58237;57.996;56.290;2022-07-05T10:15:34;99326.69;;;24.51
70664;BMP280;58237;57.996;56.290;2022-07-05T10:18:03;99322.19;;;24.45
70664;BMP280;58237;57.996;56.290;2022-07-05T10:23:05;99333.06;;;24.13
70664;BMP280;58237;57.996;56.290;2022-07-05T10:25:32;99331.16;;;24.14
70664;BMP280;58237;57.996;56.290;2022-07-05T10:27:58;99333.38;;;24.22
70664;BMP280;58237;57.996;56.290;2022-07-05T10:30:24;99333.69;;;24.31
70664;BMP280;58237;57.996;56.290;2022-07-05T10:32:50;99336.75;;;24.30
70664;BMP280;58237;57.996;56.290;2022-07-05T10:35:17;99334.09;;;24.26
70664;BMP280;58237;57.996;56.290;2022-07-05T10:37:43;99324.16;;;24.34
70664;BMP280;58237;57.996;56.290;2022-07-05T10:40:10;99325.22;;;24.43
70664;BMP280;58237;57.996;56.290;2022-07-05T10:42:39;99317.59;;;24.49
70664;BMP280;58237;57.996;56.290;2022-07-05T10:45:30;99318.28;;;24.56
70664;BMP280;58237;57.996;56.290;2022-07-05T10:48:21;99319.34;;;24.66
70664;BMP280;58237;57.996;56.290;2022-07-05T10:51:00;99315.44;;;24.74
70664;BMP280;58237;57.996;56.290;2022-07-05T10:55:55;99315.03;;;24.79
70664;BMP280;58237;57.996;56.290;2022-07-05T10:58:23;99327.00;;;24.60
70664;BMP280;58237;57.996;56.290;2022-07-05T11:03:54;99300.91;;;24.41
70664;BMP280;58237;57.996;56.290;2022-07-05T11:11:34;99308.81;;;24.04
70664;BMP280;58237;57.996;56.290;2022-07-05T11:14:04;99310.00;;;23.96
70664;BMP280;58237;57.996;56.290;2022-07-05T11:16:35;99309.22;;;23.99
70664;BMP280;58237;57.996;56.290;2022-07-05T11:19:11;99320.56;;;24.10
70664;BMP280;58237;57.996;56.290;2022-07-05T11:21:39;99307.97;;;24.18
70664;BMP280;58237;57.996;56.290;2022-07-05T11:24:19;99319.34;;;24.22
70664;BMP280;58237;57.996;56.290;2022-07-05T11:26:51;99331.44;;;24.26
70664;BMP280;58237;57.996;56.290;2022-07-05T11:32:08;99352.50;;;24.58
70664;BMP280;58237;57.996;56.290;2022-07-05T11:34:35;99303.72;;;24.24
70664;BMP280;58237;57.996;56.290;2022-07-05T11:39:42;99299.53;;;24.23
70664;BMP280;58237;57.996;56.290;2022-07-05T11:42:09;99301.44;;;24.22
70664;BMP280;58237;57.996;56.290;2022-07-05T11:44:35;99294.94;;;24.27
70664;BMP280;58237;57.996;56.290;2022-07-05T11:47:01;99301.03;;;24.31
70664;BMP280;58237;57.996;56.290;2022-07-05T11:49:27;99298.31;;;24.34
70664;BMP280;58237;57.996;56.290;2022-07-05T11:51:54;99300.22;;;24.34
70664;BMP280;58237;57.996;56.290;2022-07-05T11:54:24;99296.50;;;24.24
70664;BMP280;58237;57.996;56.290;2022-07-05T11:56:50;99290.75;;;24.29
70664;BMP280;58237;57.996;56.290;2022-07-05T11:59:23;99293.81;;;24.28
70664;BMP280;58237;57.996;56.290;2022-07-05T12:01:49;99289.28;;;24.21
70664;BMP280;58237;57.996;56.290;2022-07-05T12:04:29;99281.31;;;24.21
70664;BMP280;58237;57.996;56.290;2022-07-05T12:06:55;99269.50;;;24.26
70664;BMP280;58237;57.996;56.290;2022-07-05T12:09:32;99277.88;;;24.21
70664;BMP280;58237;57.996;56.290;2022-07-05T12:11:58;99276.03;;;24.14
70664;BMP280;58237;57.996;56.290;2022-07-05T12:14:23;99275.31;;;24.10
70664;BMP280;58237;57.996;56.290;2022-07-05T12:17:09;99277.25;;;24.06
70664;BMP280;58237;57.996;56.290;2022-07-05T12:19:34;99286.81;;;24.00
70664;BMP280;58237;57.996;56.290;2022-07-05T12:22:00;99275.31;;;24.06
70664;BMP280;58237;57.996;56.290;2022-07-05T12:24:26;99278.31;;;24.16
70664;BMP280;58237;57.996;56.290;2022-07-05T12:26:51;99282.03;;;24.29
70664;BMP280;58237;57.996;56.290;2022-07-05T12:29:17;99279.31;;;24.32
70664;BMP280;58237;57.996;56.290;2022-07-05T12:31:58;99284.34;;;24.23
70664;BMP280;58237;57.996;56.290;2022-07-05T12:34:24;99280.19;;;24.15
70664;BMP280;58237;57.996;56.290;2022-07-05T12:36:49;99282.84;;;24.15
70664;BMP280;58237;57.996;56.290;2022-07-05T12:39:18;99274.47;;;24.20
70664;BMP280;58237;57.996;56.290;2022-07-05T12:41:44;99274.06;;;24.25
70664;BMP280;58237;57.996;56.290;2022-07-05T12:44:09;99256.97;;;24.23
70664;BMP280;58237;57.996;56.290;2022-07-05T12:46:36;99263.50;;;24.18
70664;BMP280;58237;57.996;56.290;2022-07-05T12:49:02;99262.38;;;24.12
70664;BMP280;58237;57.996;56.290;2022-07-05T12:51:36;99254.81;;;24.07
70664;BMP280;58237;57.996;56.290;2022-07-05T12:54:02;99255.63;;;24.04
70664;BMP280;58237;57.996;56.290;2022-07-05T12:56:28;99263.94;;;24.06
70664;BMP280;58237;57.996;56.290;2022-07-05T12:58:59;99260.13;;;24.07
70664;BMP280;58237;57.996;56.290;2022-07-05T13:01:37;99249.50;;;24.07
70664;BMP280;58237;57.996;56.290;2022-07-05T13:04:13;99238.47;;;24.05
70664;BMP280;58237;57.996;56.290;2022-07-05T13:09:10;99244.25;;;24.00
70664;BMP280;58237;57.996;56.290;2022-07-05T13:11:36;99245.69;;;24.04
70664;BMP280;58237;57.996;56.290;2022-07-05T13:14:02;99237.31;;;24.09
70664;BMP280;58237;57.996;56.290;2022-07-05T13:16:27;99239.50;;;24.22
70664;BMP280;58237;57.996;56.290;2022-07-05T13:18:55;99234.50;;;24.27
70664;BMP280;58237;57.996;56.290;2022-07-05T13:21:20;99237.88;;;24.31
70664;BMP280;58237;57.996;56.290;2022-07-05T13:23:46;99242.84;;;24.29
70664;BMP280;58237;57.996;56.290;2022-07-05T13:26:11;99242.53;;;24.20
70664;BMP280;58237;57.996;56.290;2022-07-05T13:28:37;99233.16;;;24.05
70664;BMP280;58237;57.996;56.290;2022-07-05T13:31:03;99239.69;;;23.97
70664;BMP280;58237;57.996;56.290;2022-07-05T13:33:28;99237.81;;;23.94
